Latest Weather Observations for Pirlangimpi

IDD60801

Issued at 7:01 am CST Wednesday 29 July 2015 (issued every 30 minutes, with the page automatically refreshed every 10 minutes)

About weather observations | Map of weather stations | Latest weather observations for NT | Other Formats
Station Details ID: 014142 Name: PIRLANGIMPI AIRPORT Lat: -11.40 Lon: 130.42 Height: 18.3 m
Data from the previous 72 hours. | See also: Recent months at Pirlangimpi
Date/Time
CST
Temp
°C
App
Temp
°C
Dew
Point
Rel
Hum
%
Delta-T
°C
Wind Press
QNH
hPa
Press
MSL
hPa
Rain
since 9 am
mm
Dir
 
Spd
km/h
Gust
km/h
Spd
kts
Gust
kts
29/07:00am 20.6 21.2 15.4 72 3.1 ESE 6 9 3 5 1016.3 1016.2 0.0
29/06:30am 20.1 20.9 15.9 77 2.5 E 6 9 3 5 1016.1 1016.0 0.0
29/06:00am 17.3 18.0 14.4 83 1.7 E 4 6 2 3 1015.9 1015.8 0.0
29/05:30am 17.6 18.7 14.7 83 1.7 E 2 6 1 3 1015.8 1015.7 0.0
29/05:00am 17.8 19.5 15.2 85 1.5 CALM 0 6 0 3 1015.8 1015.7 0.0
29/04:30am 17.5 18.5 14.2 81 1.9 S 2 4 1 2 1015.6 1015.5 0.0
29/04:00am 18.3 19.9 14.8 80 2.0 CALM 0 0 0 0 1015.7 1015.6 0.0
29/03:30am 18.7 19.9 15.0 79 2.2 SE 2 2 1 1 1015.8 1015.7 0.0
29/03:00am 19.3 20.5 15.0 76 2.5 ESE 2 4 1 2 1015.9 1015.8 0.0
29/02:30am 19.1 19.8 14.4 74 2.7 ESE 4 4 2 2 1016.1 1016.0 0.0
29/02:00am 19.8 20.8 14.2 70 3.2 SSE 2 4 1 2 1016.2 1016.1 0.0
29/01:30am 20.9 21.5 15.2 70 3.4 SSE 6 9 3 5 1016.3 1016.2 0.0
29/01:00am 20.0 21.1 15.6 76 2.6 SE 4 7 2 4 1016.5 1016.4 0.0
29/12:30am 18.6 19.1 12.8 69 3.2 SSE 2 6 1 3 1016.6 1016.5 0.0
29/12:00am 18.9 19.7 12.4 66 3.6 CALM 0 0 0 0 1016.7 1016.6 0.0
 
Date/Time
CST
Temp
°C
App
Temp
°C
Dew
Point
Rel
Hum
%
Delta-T
°C
Wind Press
QNH
hPa
Press
MSL
hPa
Rain
since 9 am
mm
Dir
 
Spd
km/h
Gust
km/h
Spd
kts
Gust
kts
28/11:30pm 19.7 20.4 12.2 62 4.2 CALM 0 0 0 0 1016.5 1016.4 0.0
28/11:00pm 20.3 21.0 12.3 60 4.5 CALM 0 0 0 0 1016.7 1016.6 0.0
28/10:30pm 21.0 21.6 11.9 56 5.1 CALM 0 2 0 1 1016.7 1016.6 0.0
28/10:00pm 22.5 22.0 10.9 48 6.4 E 4 6 2 3 1016.7 1016.6 0.0
28/09:30pm 24.5 24.1 11.1 43 7.5 ESE 4 6 2 3 1016.6 1016.5 0.0
28/09:00pm 25.3 24.3 10.4 39 8.3 ESE 6 7 3 4 1016.5 1016.4 0.0
28/08:30pm 26.0 25.1 10.6 38 8.6 ESE 6 7 3 4 1016.5 1016.4 0.0
28/08:00pm 25.8 24.9 10.8 39 8.4 ESE 6 9 3 5 1016.2 1016.1 0.0
28/07:30pm 25.9 25.6 11.6 40 8.1 ESE 4 4 2 2 1015.8 1015.7 0.0
28/07:00pm 27.2 26.9 11.3 37 9.1 ESE 4 6 2 3 1015.4 1015.3 0.0
28/06:30pm 28.2 27.5 11.3 35 9.7 ESE 6 9 3 5 1015.1 1015.0 0.0
28/06:00pm 29.2 27.5 11.3 33 10.3 ESE 11 20 6 11 1014.9 1014.8 0.0
28/05:30pm 29.7 27.6 11.2 31 10.6 SE 13 28 7 15 1014.7 1014.6 0.0
28/05:00pm 30.3 28.4 11.8 32 10.8 ESE 13 28 7 15 1014.6 1014.5 0.0
28/04:30pm 30.3 27.4 12.2 33 10.6 ESE 19 30 10 16 1014.5 1014.4 0.0
28/04:00pm 30.6 28.5 12.5 33 10.7 E 15 26 8 14 1014.4 1014.3 0.0
28/03:30pm 30.6 28.5 12.5 33 10.7 ESE 15 28 8 15 1014.5 1014.4 0.0
28/03:00pm 31.3 29.4 13.1 33 10.9 SE 15 24 8 13 1014.7 1014.6 0.0
28/02:30pm 30.8 28.4 12.7 33 10.7 ESE 17 24 9 13 1014.9 1014.8 0.0
28/02:00pm 31.4 29.8 12.7 32 11.1 SE 13 24 7 13 1015.3 1015.2 0.0
28/01:30pm 31.1 29.5 12.9 32 10.8 SE 13 33 7 18 1015.7 1015.6 0.0
28/01:00pm 30.5 28.8 12.4 33 10.7 ESE 13 24 7 13 1016.2 1016.1 0.0
28/12:30pm 30.2 28.3 13.0 34 10.2 SE 15 28 8 15 1016.5 1016.4 0.0
28/12:00pm 29.6 27.2 13.8 38 9.5 E 19 32 10 17 1016.9 1016.8 0.0
28/11:30am 29.2 26.9 14.2 40 9.0 SE 19 32 10 17 1017.0 1016.9 0.0
28/11:00am 28.6 26.5 13.7 40 8.9 ESE 17 35 9 19 1017.3 1017.2 0.0
28/10:30am 28.1 25.6 13.6 41 8.6 ESE 19 32 10 17 1017.3 1017.2 0.0
28/10:00am 27.6 26.2 14.6 45 7.8 SE 15 30 8 16 1017.6 1017.5 0.0
28/09:30am 26.5 25.6 14.9 49 7.0 SE 13 24 7 13 1017.7 1017.6 0.0
28/09:00am 25.2 25.0 15.8 56 5.7 SE 11 26 6 14 1017.6 1017.5 0.0
28/08:30am 23.9 24.3 16.2 62 4.7 SE 9 17 5 9 1017.7 1017.6 0.0
28/08:00am 22.8 23.6 17.3 71 3.4 SE 9 15 5 8 1017.6 1017.5 0.0
28/07:30am 21.3 23.4 18.9 86 1.5 SE 6 9 3 5 1017.3 1017.2 0.0
28/07:00am 21.1 23.5 19.7 92 0.9 SE 6 9 3 5 1016.9 1016.8 0.0
28/06:30am 21.1 23.9 19.7 92 0.9 SSE 4 6 2 3 1016.5 1016.4 0.0
28/06:00am 21.6 24.3 20.2 92 0.9 SE 6 9 3 5 1016.5 1016.4 0.0
28/05:30am 21.4 24.6 20.6 95 0.5 ESE 4 9 2 5 1016.4 1016.3 0.0
28/05:00am 20.8 24.2 19.3 91 0.9 CALM 0 4 0 2 1016.1 1016.0 0.0
28/04:30am 21.4 24.5 20.2 93 0.8 SE 4 6 2 3 1015.7 1015.6 0.0
28/04:00am 21.0 24.1 19.5 91 1.0 SE 2 6 1 3 1015.8 1015.7 0.0
28/03:30am 21.3 24.1 19.6 90 1.1 ENE 4 4 2 2 1015.7 1015.6 0.0
28/03:00am 21.7 25.4 20.0 90 1.1 CALM 0 0 0 0 1015.9 1015.8 0.0
28/02:30am 22.3 25.5 20.6 90 1.1 SE 4 6 2 3 1016.3 1016.2 0.0
28/02:00am 22.4 26.1 20.7 90 1.1 SE 2 4 1 2 1016.5 1016.4 0.0
28/01:30am 22.6 26.0 20.9 90 1.1 SSE 4 6 2 3 1016.7 1016.6 0.0
28/01:00am 22.5 26.0 20.4 88 1.4 SE 2 4 1 2 1016.8 1016.7 0.0
28/12:30am 22.9 26.1 20.6 87 1.5 SE 4 7 2 4 1016.6 1016.5 0.0
28/12:00am 22.8 26.2 20.1 85 1.7 SSE 2 6 1 3 1016.6 1016.5 0.0
 
Date/Time
CST
Temp
°C
App
Temp
°C
Dew
Point
Rel
Hum
%
Delta-T
°C
Wind Press
QNH
hPa
Press
MSL
hPa
Rain
since 9 am
mm
Dir
 
Spd
km/h
Gust
km/h
Spd
kts
Gust
kts
27/11:30pm 23.2 27.0 20.2 83 1.9 CALM 0 2 0 1 1016.6 1016.5 0.0
27/11:00pm 24.1 27.6 20.4 80 2.4 ESE 2 2 1 1 1016.5 1016.4 0.0
27/10:30pm 24.7 27.8 21.0 80 2.4 ENE 6 9 3 5 1016.4 1016.3 0.0
27/10:00pm 24.7 27.5 20.8 79 2.6 ENE 7 11 4 6 1016.2 1016.1 0.0
27/09:30pm 25.0 27.8 20.9 78 2.7 ENE 7 13 4 7 1016.0 1015.9 0.0
27/09:00pm 25.0 27.6 20.5 76 2.9 ENE 7 13 4 7 1015.8 1015.7 0.0
27/08:30pm 25.2 27.4 20.5 75 3.1 ENE 9 13 5 7 1015.5 1015.4 0.0
27/08:00pm 25.4 27.9 20.2 73 3.4 ENE 7 13 4 7 1015.1 1015.0 0.0
27/07:30pm 25.6 28.1 19.9 70 3.7 NE 6 9 3 5 1014.7 1014.6 0.0
27/07:00pm 26.1 28.5 19.7 68 4.1 NE 6 9 3 5 1014.5 1014.4 0.0
27/06:30pm 26.9 29.1 19.5 64 4.8 NNE 7 15 4 8 1014.3 1014.2 0.0
27/06:00pm 27.8 30.2 19.6 61 5.3 NE 6 13 3 7 1014.1 1014.0 0.0
27/05:30pm 28.9 30.5 19.2 55 6.3 NNE 9 17 5 9 1013.9 1013.8 0.0
27/05:00pm 30.3 31.2 18.4 49 7.7 NE 11 19 6 10 1013.9 1013.8 0.0
27/04:30pm 30.6 30.9 18.0 47 8.1 ENE 13 22 7 12 1013.9 1013.8 0.0
27/04:00pm 31.9 32.2 18.8 45 8.5 ENE 15 26 8 14 1013.9 1013.8 0.0
27/03:30pm 31.3 31.1 18.6 46 8.2 E 17 33 9 18 1014.0 1013.9 0.0
27/03:00pm 32.4 30.4 15.4 36 10.6 ESE 20 35 11 19 1014.1 1014.0 0.0
27/02:30pm 33.0 31.3 17.2 39 10.1 ENE 22 35 12 19 1014.2 1014.1 0.0
27/02:00pm 32.6 32.0 17.6 40 9.6 ENE 17 33 9 18 1014.5 1014.4 0.0
27/01:30pm 33.2 31.8 17.0 38 10.3 E 20 37 11 20 1015.0 1014.9 0.0
27/01:00pm 31.1 30.6 17.8 45 8.5 SE 17 32 9 17 1015.5 1015.4 0.0
27/12:30pm 31.2 31.9 18.9 48 8.0 ESE 13 24 7 13 1015.8 1015.7 0.0
27/12:00pm 31.0 31.6 19.4 50 7.6 E 15 26 8 14 1016.4 1016.3 0.0
27/11:30am 31.3 31.7 19.9 50 7.5 ESE 17 30 9 16 1016.8 1016.7 0.0
27/11:00am 29.8 31.5 20.9 59 5.9 SSE 13 20 7 11 1017.2 1017.1 0.0
27/10:30am 29.3 31.7 21.5 63 5.2 SSW 11 20 6 11 1017.5 1017.4 0.0
27/10:00am 28.5 31.3 22.3 69 4.2 S 11 17 6 9 1017.5 1017.4 0.0
27/09:30am 27.3 31.5 23.1 78 2.9 SSE 6 9 3 5 1017.5 1017.4 0.0
27/09:00am 25.9 29.8 23.0 84 2.0 SSE 7 13 4 7 1017.5 1017.4 0.0
27/08:30am 24.7 29.2 22.9 90 1.2 SSE 4 6 2 3 1017.5 1017.4 0.0
27/08:00am 24.0 28.2 22.4 91 1.1 SE 4 4 2 2 1017.2 1017.1 0.0
27/07:30am 23.6 27.6 22.0 91 1.1 S 4 6 2 3 1016.8 1016.7 0.0
27/07:00am 23.6 27.5 21.9 90 1.1 S 4 6 2 3 1016.5 1016.4 0.0
27/06:30am 23.8 28.1 21.9 89 1.3 SSE 2 4 1 2 1016.3 1016.2 0.0
27/06:00am 24.0 27.9 21.9 88 1.4 SSE 4 6 2 3 1016.2 1016.1 0.0
27/05:30am 24.1 28.3 21.8 87 1.5 SE 2 4 1 2 1016.1 1016.0 0.0
27/05:00am 24.2 28.1 21.9 87 1.5 SE 4 6 2 3 1016.0 1015.9 0.0
27/04:30am 24.1 28.3 21.8 87 1.5 SSE 2 4 1 2 1016.2 1016.1 0.0
27/04:00am 24.1 28.3 21.8 87 1.5 ESE 2 4 1 2 1016.1 1016.0 0.0
27/03:30am 24.2 28.9 21.9 87 1.5 CALM 0 4 0 2 1016.2 1016.1 0.0
27/03:00am 23.9 27.9 21.4 86 1.6 ESE 2 2 1 1 1016.5 1016.4 0.0
27/02:30am 24.1 28.2 21.6 86 1.7 SE 2 7 1 4 1016.6 1016.5 0.0
27/02:00am 24.3 28.2 21.8 86 1.7 SE 4 4 2 2 1016.7 1016.6 0.0
27/01:30am 24.4 28.7 21.9 86 1.7 SSE 2 6 1 3 1017.0 1016.9 0.0
27/01:00am 24.3 28.2 21.8 86 1.7 SE 4 6 2 3 1017.1 1017.0 0.0
27/12:30am 24.1 28.1 21.4 85 1.8 SSE 2 6 1 3 1017.2 1017.1 0.0
27/12:00am 24.1 28.0 21.2 84 1.9 ENE 2 4 1 2 1017.1 1017.0 0.0
 
Date/Time
CST
Temp
°C
App
Temp
°C
Dew
Point
Rel
Hum
%
Delta-T
°C
Wind Press
QNH
hPa
Press
MSL
hPa
Rain
since 9 am
mm
Dir
 
Spd
km/h
Gust
km/h
Spd
kts
Gust
kts
26/11:30pm 24.5 28.1 21.2 82 2.2 ESE 4 6 2 3 1017.2 1017.1 0.0
26/11:00pm 24.8 28.5 21.5 82 2.2 N 4 6 2 3 1016.9 1016.8 0.0
26/10:30pm 24.7 29.0 21.2 81 2.3 CALM 0 0 0 0 1017.0 1016.9 0.0
26/10:00pm 24.7 28.6 21.2 81 2.3 N 2 4 1 2 1017.0 1016.9 0.0
26/09:30pm 24.7 28.9 21.0 80 2.4 CALM 0 0 0 0 1017.1 1017.0 0.0
26/09:00pm 24.6 28.6 20.5 78 2.7 CALM 0 0 0 0 1017.0 1016.9 0.0
26/08:30pm 24.7 28.7 20.6 78 2.7 CALM 0 0 0 0 1016.7 1016.6 0.0
26/08:00pm 24.9 28.8 20.4 76 2.9 CALM 0 0 0 0 1016.4 1016.3 0.0
26/07:30pm 25.4 29.2 20.2 73 3.4 CALM 0 0 0 0 1016.0 1015.9 0.0
26/07:00pm 26.4 29.9 20.3 69 4.0 NNE 2 4 1 2 1015.6 1015.5 0.0
26/06:30pm 27.3 30.7 20.1 64 4.7 N 2 7 1 4 1015.3 1015.2 0.0
26/06:00pm 28.1 31.3 20.4 63 5.1 NNE 4 7 2 4 1015.0 1014.9 0.0
26/05:30pm 29.1 32.2 20.3 59 5.8 NE 4 9 2 5 1014.8 1014.7 0.0
26/05:00pm 30.0 32.2 20.5 56 6.3 ENE 9 15 5 8 1014.6 1014.5 0.0
26/04:30pm 30.9 33.7 20.8 55 6.7 ENE 7 15 4 8 1014.3 1014.2 0.0
26/04:00pm 31.7 34.1 20.9 52 7.2 NE 9 19 5 10 1014.1 1014.0 0.0
26/03:30pm 32.5 33.8 20.1 48 8.2 ENE 13 26 7 14 1013.9 1013.8 0.0
26/03:00pm 33.4 34.9 20.5 46 8.6 NE 13 22 7 12 1013.9 1013.8 0.0
26/02:30pm 33.4 35.8 20.9 48 8.4 NE 9 20 5 11 1014.1 1014.0 0.0
26/02:00pm 33.7 34.3 18.6 40 9.9 ENE 13 28 7 15 1014.5 1014.4 0.0
26/01:30pm 33.5 34.8 19.2 43 9.4 E 11 22 6 12 1014.6 1014.5 0.0
26/01:00pm 33.2 34.5 19.3 44 9.1 ENE 11 22 6 12 1015.0 1014.9 0.0
26/12:30pm 32.6 32.9 18.8 44 9.0 ENE 15 26 8 14 1015.5 1015.4 0.0
26/12:00pm 32.2 32.5 18.8 45 8.7 E 15 30 8 16 1016.1 1016.0 0.0
26/11:30am 30.8 31.4 18.5 47 7.9 ESE 13 22 7 12 1016.5 1016.4 0.0
26/11:00am 29.9 31.1 19.0 52 7.1 E 11 19 6 10 1016.9 1016.8 0.0
26/10:30am 29.5 30.8 20.1 57 6.2 E 13 22 7 12 1017.1 1017.0 0.0
26/10:00am 28.2 30.7 21.0 65 4.8 SE 9 17 5 9 1017.3 1017.2 0.0
26/09:30am 26.6 30.0 21.6 74 3.3 SSE 6 9 3 5 1017.4 1017.3 0.0
26/09:00am 24.9 28.3 21.6 82 2.2 SE 6 9 3 5 1017.4 1017.3 0.0
26/08:30am 23.7 27.5 21.6 88 1.4 SSE 4 7 2 4 1017.1 1017.0 0.0
26/08:00am 22.5 25.9 21.0 91 1.0 SSE 4 6 2 3 1016.8 1016.7 0.0
26/07:30am 22.4 25.8 21.0 92 0.9 SSE 4 6 2 3 1016.6 1016.5 0.0

Other Formats:

Comma delimited format used in spreadsheet applications
http://www.bom.gov.au/fwo/IDD60801/IDD60801.94119.axf

JavaScript Object Notation format (JSON) in row-major order
http://www.bom.gov.au/fwo/IDD60801/IDD60801.94119.json